Time;durP1;ratioP1;P1;durP2;ratioP2;P2;SDS_P1;SDS_P2;PMS_P1;PMS_P2;Temp;Humidity;BMP_temperature;BMP_pressure;BME280_temperature;BME280_humidity;BME280_pressure;Samples;Min_cycle;Max_cycle;Signal;HPM_P1;HPM_P2
2023/05/28 00:01:11;;;;;;;16.63;11.32;;;;;;;;;;5125714;27;20039;-81
2023/05/28 00:03:57;;;;;;;14.35;11.23;;;;;;;;;;5135247;27;20043;-81
2023/05/28 00:06:42;;;;;;;16.92;11.25;;;;;;;;;;5135267;27;20039;-82
2023/05/28 00:09:28;;;;;;;14.60;10.50;;;;;;;;;;5120094;27;20043;-81
2023/05/28 00:12:14;;;;;;;14.05;10.73;;;;;;;;;;5120238;27;20043;-81
2023/05/28 00:15:00;;;;;;;12.82;10.88;;;;;;;;;;5136056;27;20043;-81
2023/05/28 00:17:45;;;;;;;16.33;11.65;;;;;;;;;;5135126;27;20043;-80
2023/05/28 00:20:31;;;;;;;17.35;11.77;;;;;;;;;;5135122;27;20412;-79
2023/05/28 00:23:17;;;;;;;15.57;11.93;;;;;;;;;;5134909;27;20043;-79
2023/05/28 00:26:02;;;;;;;18.27;11.98;;;;;;;;;;5134947;27;20043;-80
2023/05/28 00:28:48;;;;;;;13.52;10.68;;;;;;;;;;5134880;27;20216;-80
2023/05/28 00:31:33;;;;;;;15.32;10.43;;;;;;;;;;5134799;27;20039;-80
2023/05/28 00:34:19;;;;;;;15.23;10.70;;;;;;;;;;5126299;27;20046;-79
2023/05/28 00:37:04;;;;;;;16.35;10.68;;;;;;;;;;5134944;27;20039;-79
2023/05/28 00:39:49;;;;;;;15.85;11.15;;;;;;;;;;5134529;27;20039;-79
2023/05/28 00:42:35;;;;;;;15.55;11.15;;;;;;;;;;5126457;27;20047;-80
2023/05/28 00:45:20;;;;;;;13.80;10.75;;;;;;;;;;5119198;28;20039;-80
2023/05/28 00:48:06;;;;;;;17.33;11.27;;;;;;;;;;5134735;28;20392;-79
2023/05/28 00:50:52;;;;;;;19.17;11.85;;;;;;;;;;5126008;27;20039;-79
2023/05/28 00:53:38;;;;;;;20.05;11.57;;;;;;;;;;5126112;27;20043;-79
2023/05/28 00:56:24;;;;;;;15.50;11.93;;;;;;;;;;5126285;27;20407;-79
2023/05/28 00:59:10;;;;;;;14.00;11.15;;;;;;;;;;5126002;27;20039;-80
2023/05/28 01:01:57;;;;;;;21.13;12.07;;;;;;;;;;5134535;28;20392;-79
2023/05/28 01:04:42;;;;;;;18.48;12.20;;;;;;;;;;5134115;28;20488;-80
2023/05/28 01:07:30;;;;;;;17.00;12.13;;;;;;;;;;5140348;27;20043;-79
2023/05/28 01:10:16;;;;;;;18.65;11.63;;;;;;;;;;5134490;28;20043;-79
2023/05/28 01:13:05;;;;;;;15.45;12.13;;;;;;;;;;5142309;27;20039;-80
2023/05/28 01:15:50;;;;;;;13.82;11.38;;;;;;;;;;5144333;27;20043;-79
2023/05/28 01:18:44;;;;;;;14.52;11.40;;;;;;;;;;5144818;27;20039;-81
2023/05/28 01:21:30;;;;;;;17.60;11.93;;;;;;;;;;5143979;27;20404;-80
2023/05/28 01:24:17;;;;;;;16.73;11.75;;;;;;;;;;5138616;27;20039;-79
2023/05/28 01:27:03;;;;;;;17.35;12.35;;;;;;;;;;5129756;27;20042;-79
2023/05/28 01:29:49;;;;;;;16.73;12.25;;;;;;;;;;5138224;27;20492;-79
2023/05/28 01:32:35;;;;;;;15.90;11.77;;;;;;;;;;5129434;27;20047;-79
2023/05/28 01:35:20;;;;;;;19.65;12.40;;;;;;;;;;5129802;27;20051;-79
2023/05/28 01:38:08;;;;;;;19.38;12.23;;;;;;;;;;5130114;27;20035;-79
2023/05/28 01:40:54;;;;;;;19.60;11.07;;;;;;;;;;5137914;27;20043;-79
2023/05/28 01:43:41;;;;;;;19.50;11.43;;;;;;;;;;5129519;27;20480;-79
2023/05/28 01:46:27;;;;;;;18.38;11.02;;;;;;;;;;5137597;27;20039;-80
2023/05/28 01:49:13;;;;;;;15.77;11.57;;;;;;;;;;5128880;27;20039;-80
2023/05/28 01:52:03;;;;;;;14.88;11.40;;;;;;;;;;5129289;27;20488;-80
2023/05/28 01:54:48;;;;;;;21.33;14.38;;;;;;;;;;5129284;27;20039;-79
2023/05/28 01:57:35;;;;;;;20.42;14.43;;;;;;;;;;5129408;27;20044;-79
2023/05/28 02:00:22;;;;;;;14.05;11.63;;;;;;;;;;5114650;27;20047;-79
2023/05/28 02:03:10;;;;;;;15.85;12.13;;;;;;;;;;5137597;27;20039;-80
2023/05/28 02:05:55;;;;;;;17.83;11.73;;;;;;;;;;5137348;27;20047;-80
2023/05/28 02:08:41;;;;;;;17.05;12.18;;;;;;;;;;5137729;27;20416;-80
2023/05/28 02:11:26;;;;;;;16.00;11.98;;;;;;;;;;5138031;27;20038;-79
2023/05/28 02:14:14;;;;;;;13.52;11.20;;;;;;;;;;5128631;27;20059;-80
2023/05/28 02:17:00;;;;;;;15.45;11.57;;;;;;;;;;5128988;27;20035;-79
2023/05/28 02:19:45;;;;;;;17.83;12.25;;;;;;;;;;5128657;27;20039;-79
2023/05/28 02:22:31;;;;;;;20.30;12.38;;;;;;;;;;5137224;27;20039;-79
2023/05/28 02:25:16;;;;;;;28.08;18.17;;;;;;;;;;5136803;27;20043;-79
2023/05/28 02:28:03;;;;;;;18.27;14.10;;;;;;;;;;5137265;27;20035;-80
2023/05/28 02:30:49;;;;;;;20.67;14.38;;;;;;;;;;5128862;27;20047;-79
2023/05/28 02:33:37;;;;;;;17.95;12.35;;;;;;;;;;5137305;27;20477;-83
2023/05/28 02:36:22;;;;;;;17.35;11.85;;;;;;;;;;5136624;27;20392;-81
2023/05/28 02:39:10;;;;;;;16.73;11.00;;;;;;;;;;5128327;27;20054;-81
2023/05/28 02:41:56;;;;;;;21.77;11.65;;;;;;;;;;5128087;27;20035;-82
2023/05/28 02:44:42;;;;;;;24.65;12.07;;;;;;;;;;5128563;27;20043;-81
2023/05/28 02:47:28;;;;;;;15.60;11.85;;;;;;;;;;5121718;27;20040;-80
2023/05/28 02:50:14;;;;;;;16.60;12.32;;;;;;;;;;5121063;27;20051;-81
2023/05/28 02:53:20;;;;;;;17.60;13.57;;;;;;;;;;5143454;27;20050;-80
2023/05/28 02:56:07;;;;;;;19.80;13.90;;;;;;;;;;5126072;27;20423;-81
2023/05/28 02:58:55;;;;;;;24.02;14.75;;;;;;;;;;5126023;27;20035;-81
2023/05/28 03:01:41;;;;;;;21.67;13.32;;;;;;;;;;5134010;27;20039;-81
2023/05/28 03:04:26;;;;;;;23.83;14.15;;;;;;;;;;5125764;27;20039;-80
2023/05/28 03:07:12;;;;;;;22.35;13.93;;;;;;;;;;5125750;27;20051;-80
2023/05/28 03:09:58;;;;;;;16.27;13.32;;;;;;;;;;5134875;27;20043;-82
2023/05/28 03:12:43;;;;;;;22.02;14.82;;;;;;;;;;5127554;27;20035;-80
2023/05/28 03:15:28;;;;;;;24.70;16.92;;;;;;;;;;5127996;27;20522;-80
2023/05/28 03:18:13;;;;;;;23.77;16.08;;;;;;;;;;5113321;27;20043;-81
2023/05/28 03:20:58;;;;;;;24.63;15.27;;;;;;;;;;5136341;27;20039;-81
2023/05/28 03:23:44;;;;;;;21.70;15.52;;;;;;;;;;5127479;27;20039;-81
2023/05/28 03:26:37;;;;;;;18.10;13.40;;;;;;;;;;5127594;27;20039;-81
2023/05/28 03:29:23;;;;;;;16.02;12.13;;;;;;;;;;5127880;27;20496;-80
2023/05/28 03:32:18;;;;;;;15.90;12.68;;;;;;;;;;5127358;27;20047;-80
2023/05/28 03:35:04;;;;;;;18.02;13.77;;;;;;;;;;5127153;27;20069;-81
2023/05/28 03:37:51;;;;;;;15.80;12.65;;;;;;;;;;5126949;27;20035;-80
2023/05/28 03:40:37;;;;;;;16.88;12.88;;;;;;;;;;5135631;27;20476;-81
2023/05/28 03:43:22;;;;;;;18.33;12.63;;;;;;;;;;5127086;27;20039;-82
2023/05/28 03:46:07;;;;;;;16.65;12.07;;;;;;;;;;5124747;27;20039;-80
2023/05/28 03:48:56;;;;;;;19.23;12.30;;;;;;;;;;5127515;27;20031;-81
2023/05/28 03:51:42;;;;;;;20.60;12.68;;;;;;;;;;5126803;27;20051;-81
2023/05/28 03:54:28;;;;;;;15.77;11.40;;;;;;;;;;5126670;27;20059;-80
2023/05/28 03:57:15;;;;;;;15.45;12.35;;;;;;;;;;5135564;27;20043;-80
2023/05/28 04:00:00;;;;;;;17.88;12.10;;;;;;;;;;5127068;27;20469;-81
2023/05/28 04:02:46;;;;;;;18.02;13.07;;;;;;;;;;5126855;27;20043;-82
2023/05/28 04:05:33;;;;;;;16.90;12.57;;;;;;;;;;5126718;27;20035;-80
2023/05/28 04:08:19;;;;;;;15.75;11.68;;;;;;;;;;5126627;27;20171;-80
2023/05/28 04:11:05;;;;;;;15.57;11.77;;;;;;;;;;5112199;27;20047;-81
2023/05/28 04:13:51;;;;;;;15.93;11.95;;;;;;;;;;5126613;27;20043;-80
2023/05/28 04:16:35;;;;;;;17.27;12.90;;;;;;;;;;5126558;27;20396;-80
2023/05/28 04:19:20;;;;;;;20.38;13.32;;;;;;;;;;5135153;27;20043;-81
2023/05/28 04:22:06;;;;;;;24.30;13.05;;;;;;;;;;5119301;27;20031;-82
2023/05/28 04:24:55;;;;;;;16.00;12.65;;;;;;;;;;5134938;27;20043;-81
2023/05/28 04:27:41;;;;;;;15.68;12.10;;;;;;;;;;5134802;27;20047;-80
2023/05/28 04:30:27;;;;;;;16.83;12.48;;;;;;;;;;5134257;27;20036;-79
2023/05/28 04:33:16;;;;;;;15.77;11.98;;;;;;;;;;5140865;27;20059;-80
2023/05/28 04:36:01;;;;;;;22.17;12.25;;;;;;;;;;5140653;27;20046;-81
2023/05/28 04:38:47;;;;;;;17.63;12.00;;;;;;;;;;5140744;27;20039;-81
2023/05/28 04:41:33;;;;;;;18.40;12.98;;;;;;;;;;5140273;27;20544;-80
2023/05/28 04:44:19;;;;;;;14.43;11.18;;;;;;;;;;5140683;27;20051;-81
2023/05/28 04:47:05;;;;;;;15.88;11.90;;;;;;;;;;5133950;27;20039;-80
2023/05/28 04:49:51;;;;;;;15.80;11.80;;;;;;;;;;5134495;28;20039;-80
2023/05/28 04:52:37;;;;;;;16.17;11.48;;;;;;;;;;5140325;27;20051;-80
2023/05/28 04:55:23;;;;;;;14.77;10.95;;;;;;;;;;5140398;27;20039;-80
2023/05/28 04:58:09;;;;;;;16.13;11.07;;;;;;;;;;5140463;27;20043;-80
2023/05/28 05:00:55;;;;;;;18.13;11.25;;;;;;;;;;5140365;27;20039;-82
2023/05/28 05:03:41;;;;;;;15.70;11.13;;;;;;;;;;5140287;27;20035;-81
2023/05/28 05:06:26;;;;;;;16.52;11.77;;;;;;;;;;5125646;27;20484;-82
2023/05/28 05:09:11;;;;;;;19.17;12.73;;;;;;;;;;5140291;27;20039;-80
2023/05/28 05:11:57;;;;;;;19.27;12.35;;;;;;;;;;5134577;28;20044;-83
2023/05/28 05:14:42;;;;;;;18.55;11.05;;;;;;;;;;5140655;27;20043;-81
2023/05/28 05:17:28;;;;;;;17.42;11.38;;;;;;;;;;5139898;27;20400;-82
2023/05/28 05:20:13;;;;;;;18.83;10.50;;;;;;;;;;5133142;28;20047;-81
2023/05/28 05:22:59;;;;;;;16.75;11.07;;;;;;;;;;5140491;27;20048;-82
2023/05/28 05:25:44;;;;;;;16.40;10.23;;;;;;;;;;5133552;28;20039;-82
2023/05/28 05:28:30;;;;;;;14.70;10.80;;;;;;;;;;5126004;27;20035;-82
2023/05/28 05:31:15;;;;;;;19.02;11.05;;;;;;;;;;5125658;27;20036;-82
2023/05/28 05:34:01;;;;;;;17.85;11.60;;;;;;;;;;5139771;27;20035;-82
2023/05/28 05:36:47;;;;;;;15.90;11.10;;;;;;;;;;5134072;28;20039;-81
2023/05/28 05:39:55;;;;;;;21.60;14.10;;;;;;;;;;5129054;27;20035;-82
2023/05/28 05:42:40;;;;;;;21.42;15.27;;;;;;;;;;5133621;28;20043;-82
2023/05/28 05:45:25;;;;;;;23.60;15.43;;;;;;;;;;5139603;27;20492;-82
2023/05/28 05:48:12;;;;;;;17.85;13.23;;;;;;;;;;5139859;27;20039;-81
2023/05/28 05:50:58;;;;;;;21.75;13.18;;;;;;;;;;5133744;28;20047;-81
2023/05/28 05:53:45;;;;;;;21.33;12.88;;;;;;;;;;5139992;27;20039;-82
2023/05/28 05:56:31;;;;;;;21.55;13.70;;;;;;;;;;5140313;27;20035;-83
2023/05/28 05:59:16;;;;;;;30.70;20.13;;;;;;;;;;5129938;27;20043;-81
2023/05/28 06:02:02;;;;;;;25.42;19.13;;;;;;;;;;5147131;27;20035;-80
2023/05/28 06:04:49;;;;;;;41.83;28.73;;;;;;;;;;5147329;27;20384;-81
2023/05/28 06:08:02;;;;;;;31.05;21.05;;;;;;;;;;5147161;27;20051;-80
2023/05/28 06:10:58;;;;;;;18.20;13.32;;;;;;;;;;5147217;27;20404;-81
2023/05/28 06:13:45;;;;;;;15.27;11.50;;;;;;;;;;5146001;27;20043;-81
2023/05/28 06:16:30;;;;;;;15.95;11.52;;;;;;;;;;5148204;27;20043;-81
2023/05/28 06:19:16;;;;;;;18.73;12.40;;;;;;;;;;5144830;27;20039;-81
2023/05/28 06:22:01;;;;;;;18.08;12.85;;;;;;;;;;5142892;27;20476;-81
2023/05/28 06:24:49;;;;;;;17.52;12.40;;;;;;;;;;5143256;27;20039;-81
2023/05/28 06:27:36;;;;;;;18.65;11.75;;;;;;;;;;5142810;27;20047;-83
2023/05/28 06:30:21;;;;;;;13.98;11.32;;;;;;;;;;5142808;27;20047;-80
2023/05/28 06:33:08;;;;;;;21.15;12.23;;;;;;;;;;5142950;27;20472;-80
2023/05/28 06:35:55;;;;;;;16.58;12.02;;;;;;;;;;5143093;27;20040;-81
2023/05/28 06:38:40;;;;;;;14.40;11.68;;;;;;;;;;5143043;27;20043;-81
2023/05/28 06:41:27;;;;;;;14.95;11.05;;;;;;;;;;5142477;27;20043;-80
2023/05/28 06:44:12;;;;;;;18.42;11.30;;;;;;;;;;5127907;27;20047;-80
2023/05/28 06:47:09;;;;;;;14.73;11.35;;;;;;;;;;5135960;27;20047;-80
2023/05/28 06:49:55;;;;;;;15.75;11.68;;;;;;;;;;5142574;27;20039;-80
2023/05/28 06:52:42;;;;;;;18.55;11.55;;;;;;;;;;5128510;27;20039;-82
2023/05/28 06:55:28;;;;;;;15.38;11.45;;;;;;;;;;5136475;27;20051;-82
2023/05/28 06:58:42;;;;;;;13.07;10.52;;;;;;;;;;5132381;27;20043;-81
2023/05/28 07:01:51;;;;;;;14.32;11.40;;;;;;;;;;5121941;27;20054;-81
2023/05/28 07:04:55;;;;;;;13.75;11.02;;;;;;;;;;5136621;27;20031;-82
2023/05/28 07:07:44;;;;;;;17.27;11.90;;;;;;;;;;5142234;27;20043;-82
2023/05/28 07:10:30;;;;;;;16.10;10.90;;;;;;;;;;5141485;27;20038;-81
2023/05/28 07:13:15;;;;;;;18.15;10.90;;;;;;;;;;5141609;27;20039;-81
2023/05/28 07:16:00;;;;;;;16.73;11.38;;;;;;;;;;5140101;27;20043;-81
2023/05/28 07:18:45;;;;;;;18.00;11.20;;;;;;;;;;5141937;27;20043;-81
2023/05/28 07:21:32;;;;;;;14.85;10.90;;;;;;;;;;5140387;27;20031;-81
2023/05/28 07:24:18;;;;;;;13.68;10.68;;;;;;;;;;5141313;27;20043;-82
2023/05/28 07:27:05;;;;;;;15.30;11.43;;;;;;;;;;5135706;27;20047;-81
2023/05/28 07:29:54;;;;;;;17.38;11.25;;;;;;;;;;5140771;27;20039;-80
2023/05/28 07:32:39;;;;;;;15.30;11.00;;;;;;;;;;5141512;27;20043;-80
2023/05/28 07:35:25;;;;;;;19.90;11.38;;;;;;;;;;5139525;27;20043;-80
2023/05/28 07:38:12;;;;;;;13.13;9.90;;;;;;;;;;5133743;27;20054;-79
2023/05/28 07:40:57;;;;;;;16.08;11.13;;;;;;;;;;5135474;27;20044;-80
2023/05/28 07:43:56;;;;;;;14.63;10.15;;;;;;;;;;5140097;27;20113;-79
2023/05/28 07:46:45;;;;;;;11.50;8.15;;;;;;;;;;5137170;27;20043;-80
2023/05/28 07:49:47;;;;;;;11.20;7.88;;;;;;;;;;5141414;27;20400;-81
2023/05/28 07:52:36;;;;;;;9.45;7.65;;;;;;;;;;5134351;27;20039;-80
2023/05/28 07:55:22;;;;;;;10.15;8.10;;;;;;;;;;5141239;27;20507;-80
2023/05/28 07:58:07;;;;;;;10.55;7.68;;;;;;;;;;5140993;27;20047;-81
2023/05/28 08:00:53;;;;;;;9.85;6.70;;;;;;;;;;5140844;27;20043;-80
2023/05/28 08:03:39;;;;;;;8.75;5.90;;;;;;;;;;5140956;27;20477;-81
2023/05/28 08:06:26;;;;;;;8.15;6.78;;;;;;;;;;5126526;27;20035;-81
2023/05/28 08:09:17;;;;;;;8.88;7.13;;;;;;;;;;5141096;27;20468;-79
2023/05/28 08:12:05;;;;;;;9.43;7.03;;;;;;;;;;5140910;27;20047;-79
2023/05/28 08:14:53;;;;;;;19.48;6.50;;;;;;;;;;5142004;27;20035;-78
2023/05/28 08:17:39;;;;;;;11.30;8.25;;;;;;;;;;5140968;27;20039;-76
2023/05/28 08:20:29;;;;;;;12.18;7.65;;;;;;;;;;5140935;27;20035;-77
2023/05/28 08:23:17;;;;;;;9.93;7.35;;;;;;;;;;5142447;27;20043;-77
2023/05/28 08:26:04;;;;;;;11.75;6.72;;;;;;;;;;5135762;27;20035;-81
2023/05/28 08:28:52;;;;;;;10.52;7.38;;;;;;;;;;5141331;27;20055;-81
2023/05/28 08:31:37;;;;;;;9.77;7.55;;;;;;;;;;5132502;27;20051;-81
2023/05/28 08:34:31;;;;;;;9.20;7.35;;;;;;;;;;5144604;27;20066;-78
2023/05/28 08:37:17;;;;;;;10.95;7.93;;;;;;;;;;5141775;27;20473;-79
2023/05/28 08:40:31;;;;;;;10.85;8.38;;;;;;;;;;5140170;27;20496;-83
2023/05/28 08:43:15;;;;;;;11.95;8.00;;;;;;;;;;5140923;27;20047;-82
2023/05/28 08:46:01;;;;;;;10.25;8.10;;;;;;;;;;5132899;27;20043;-81
2023/05/28 08:48:55;;;;;;;10.38;7.65;;;;;;;;;;5139473;27;20043;-82
2023/05/28 08:51:42;;;;;;;11.23;7.05;;;;;;;;;;5140685;27;20055;-82
2023/05/28 08:54:28;;;;;;;11.20;7.90;;;;;;;;;;5140563;27;20047;-81
2023/05/28 08:57:14;;;;;;;12.18;7.15;;;;;;;;;;5135026;28;20484;-83
2023/05/28 09:00:08;;;;;;;9.98;7.75;;;;;;;;;;5139871;27;20031;-82
2023/05/28 09:03:07;;;;;;;10.75;7.32;;;;;;;;;;5139761;27;20048;-82
2023/05/28 09:05:53;;;;;;;12.45;7.78;;;;;;;;;;5140558;27;20392;-82
2023/05/28 09:08:40;;;;;;;11.48;8.02;;;;;;;;;;5140150;27;20477;-82
2023/05/28 09:11:27;;;;;;;11.77;8.05;;;;;;;;;;5140565;27;20039;-82
2023/05/28 09:14:14;;;;;;;11.23;8.35;;;;;;;;;;5140463;27;20047;-84
2023/05/28 09:16:59;;;;;;;10.98;7.50;;;;;;;;;;5141356;27;20039;-81
2023/05/28 09:19:51;;;;;;;13.38;8.15;;;;;;;;;;5140460;27;20035;-81
2023/05/28 09:22:37;;;;;;;10.43;7.47;;;;;;;;;;5139754;27;20039;-81
2023/05/28 09:25:44;;;;;;;13.10;8.25;;;;;;;;;;5140857;27;20472;-82
2023/05/28 09:28:35;;;;;;;12.88;7.95;;;;;;;;;;5140593;27;20043;-84
2023/05/28 09:31:27;;;;;;;10.45;8.45;;;;;;;;;;5133338;28;20480;-82
2023/05/28 09:34:13;;;;;;;12.55;8.27;;;;;;;;;;5134847;27;20039;-82
2023/05/28 09:37:00;;;;;;;10.52;8.13;;;;;;;;;;5138942;27;20043;-78
2023/05/28 09:39:45;;;;;;;11.30;8.70;;;;;;;;;;5138274;27;20392;-77
2023/05/28 09:42:43;;;;;;;10.13;8.30;;;;;;;;;;5145409;27;20043;-79
2023/05/28 09:45:29;;;;;;;12.85;8.50;;;;;;;;;;5139014;27;20404;-78
2023/05/28 09:48:15;;;;;;;11.20;8.07;;;;;;;;;;5137435;27;20392;-78
2023/05/28 09:51:05;;;;;;;15.35;8.20;;;;;;;;;;5137062;27;20047;-77
2023/05/28 09:54:06;;;;;;;9.13;8.02;;;;;;;;;;5138272;27;20051;-81
2023/05/28 09:56:54;;;;;;;12.10;7.50;;;;;;;;;;5138034;27;20482;-80
2023/05/28 09:59:40;;;;;;;11.02;7.07;;;;;;;;;;5137183;27;20039;-81
2023/05/28 10:02:42;;;;;;;12.30;7.90;;;;;;;;;;5143329;27;20404;-82
2023/05/28 10:05:32;;;;;;;9.98;8.10;;;;;;;;;;5137836;27;20046;-82
2023/05/28 10:08:21;;;;;;;7.57;5.72;;;;;;;;;;5141249;27;20042;-80
2023/05/28 10:11:10;;;;;;;11.98;7.35;;;;;;;;;;5137994;27;20043;-83
2023/05/28 10:13:56;;;;;;;13.93;7.32;;;;;;;;;;5137254;27;20383;-81
2023/05/28 10:16:42;;;;;;;10.15;6.90;;;;;;;;;;5137457;27;20468;-81
2023/05/28 10:19:28;;;;;;;10.43;7.10;;;;;;;;;;5136253;27;20484;-80
2023/05/28 10:22:16;;;;;;;9.63;6.63;;;;;;;;;;5136902;27;20035;-79
2023/05/28 10:25:02;;;;;;;9.75;7.32;;;;;;;;;;5142530;27;20403;-82
2023/05/28 10:27:48;;;;;;;7.60;6.50;;;;;;;;;;5137341;27;20043;-81
2023/05/28 10:30:36;;;;;;;8.70;6.53;;;;;;;;;;5136985;27;20035;-78
2023/05/28 10:33:21;;;;;;;9.07;6.75;;;;;;;;;;5137095;27;20490;-80
2023/05/28 10:36:11;;;;;;;10.80;7.28;;;;;;;;;;5137012;27;20043;-78
2023/05/28 10:39:01;;;;;;;11.30;6.45;;;;;;;;;;5137119;27;20477;-79
2023/05/28 10:41:49;;;;;;;9.93;5.07;;;;;;;;;;5137145;27;20043;-80
2023/05/28 10:44:59;;;;;;;6.90;5.35;;;;;;;;;;5136936;27;20039;-80
2023/05/28 10:47:53;;;;;;;6.10;4.85;;;;;;;;;;5137851;27;20043;-81
2023/05/28 10:50:57;;;;;;;7.22;5.50;;;;;;;;;;5137921;27;20043;-83
2023/05/28 10:53:42;;;;;;;5.70;4.55;;;;;;;;;;5137006;27;20039;-82
2023/05/28 10:56:27;;;;;;;8.02;5.03;;;;;;;;;;5137113;27;20091;-84
2023/05/28 10:59:14;;;;;;;7.35;5.47;;;;;;;;;;5138375;27;20043;-81
2023/05/28 11:02:07;;;;;;;5.68;4.57;;;;;;;;;;5138759;27;20039;-81
2023/05/28 11:05:07;;;;;;;9.07;4.85;;;;;;;;;;5143055;27;20043;-84
2023/05/28 11:07:57;;;;;;;6.38;4.90;;;;;;;;;;5142411;27;20380;-79
2023/05/28 11:10:49;;;;;;;6.57;4.57;;;;;;;;;;5136233;27;20051;-80
2023/05/28 11:13:41;;;;;;;6.75;4.93;;;;;;;;;;5130727;27;20481;-81
2023/05/28 11:16:32;;;;;;;6.40;4.55;;;;;;;;;;5136042;27;20039;-83
2023/05/28 11:19:18;;;;;;;8.18;5.40;;;;;;;;;;5136064;27;20043;-83
2023/05/28 11:22:04;;;;;;;6.57;5.22;;;;;;;;;;5135872;27;20051;-81
2023/05/28 11:24:59;;;;;;;7.85;5.10;;;;;;;;;;5141990;27;20051;-82
2023/05/28 11:27:53;;;;;;;7.95;5.50;;;;;;;;;;5141964;27;20039;-84
2023/05/28 11:30:44;;;;;;;7.68;5.95;;;;;;;;;;5136728;27;20046;-83
2023/05/28 11:33:52;;;;;;;7.97;5.78;;;;;;;;;;5136104;27;20047;-82
2023/05/28 11:36:56;;;;;;;8.85;5.85;;;;;;;;;;5137209;27;20400;-80
2023/05/28 11:39:59;;;;;;;7.82;6.03;;;;;;;;;;5135882;27;20035;-79
2023/05/28 11:42:49;;;;;;;7.20;5.70;;;;;;;;;;5136034;27;20043;-83
2023/05/28 11:45:41;;;;;;;8.25;6.38;;;;;;;;;;5142045;27;20481;-80
2023/05/28 11:48:27;;;;;;;7.78;6.35;;;;;;;;;;5136953;27;20106;-80
2023/05/28 11:51:20;;;;;;;7.63;5.80;;;;;;;;;;5136957;27;20492;-79
2023/05/28 11:54:05;;;;;;;7.03;5.85;;;;;;;;;;5137333;27;20047;-79
2023/05/28 11:56:51;;;;;;;9.40;6.57;;;;;;;;;;5137325;27;20384;-80
2023/05/28 11:59:37;;;;;;;7.53;6.22;;;;;;;;;;5135435;27;20046;-78
2023/05/28 12:02:23;;;;;;;8.77;5.78;;;;;;;;;;5135039;27;20031;-77
2023/05/28 12:05:08;;;;;;;9.13;5.63;;;;;;;;;;5135323;27;20046;-79
2023/05/28 12:07:54;;;;;;;11.38;6.35;;;;;;;;;;5135309;27;20038;-79
2023/05/28 12:10:40;;;;;;;8.55;5.82;;;;;;;;;;5134925;27;20047;-79
2023/05/28 12:13:31;;;;;;;9.02;5.95;;;;;;;;;;5133753;27;20039;-81
2023/05/28 12:16:17;;;;;;;10.30;6.10;;;;;;;;;;5134758;27;20047;-80
2023/05/28 12:19:04;;;;;;;8.30;6.57;;;;;;;;;;5135004;27;20054;-79
2023/05/28 12:21:53;;;;;;;8.25;7.05;;;;;;;;;;5135020;27;20039;-80
2023/05/28 12:24:51;;;;;;;9.57;7.15;;;;;;;;;;5134769;27;20486;-79
2023/05/28 12:27:37;;;;;;;8.10;6.45;;;;;;;;;;5134675;27;20484;-79
2023/05/28 12:30:21;;;;;;;7.65;5.95;;;;;;;;;;5134311;27;20047;-79
2023/05/28 12:33:06;;;;;;;8.02;6.05;;;;;;;;;;5132741;27;20043;-79
2023/05/28 12:35:52;;;;;;;9.88;5.97;;;;;;;;;;5133308;27;20039;-79
2023/05/28 12:38:37;;;;;;;8.02;6.22;;;;;;;;;;5133325;27;20392;-78
2023/05/28 12:41:22;;;;;;;8.38;6.13;;;;;;;;;;5134368;27;20039;-79
2023/05/28 12:44:08;;;;;;;8.90;6.50;;;;;;;;;;5134586;27;20051;-78
2023/05/28 12:46:53;;;;;;;7.53;6.47;;;;;;;;;;5133790;27;20046;-79
2023/05/28 12:49:40;;;;;;;13.00;5.78;;;;;;;;;;5133669;27;20039;-79
2023/05/28 12:52:25;;;;;;;6.90;5.80;;;;;;;;;;5133584;28;20043;-79
2023/05/28 12:55:10;;;;;;;7.00;5.65;;;;;;;;;;5133631;28;20516;-79
2023/05/28 12:57:55;;;;;;;8.88;5.90;;;;;;;;;;5133695;28;20388;-79
2023/05/28 13:00:41;;;;;;;6.20;5.30;;;;;;;;;;5134120;28;20051;-78
2023/05/28 13:03:27;;;;;;;6.85;5.65;;;;;;;;;;5132352;28;20035;-79
2023/05/28 13:06:12;;;;;;;9.00;5.57;;;;;;;;;;5132863;28;20051;-78
2023/05/28 13:08:58;;;;;;;6.03;5.05;;;;;;;;;;5135983;27;20042;-78
2023/05/28 13:11:44;;;;;;;7.03;5.97;;;;;;;;;;5137077;27;20043;-78
2023/05/28 13:14:32;;;;;;;6.53;5.78;;;;;;;;;;5143842;27;20040;-79
2023/05/28 13:17:19;;;;;;;6.97;5.38;;;;;;;;;;5138265;27;20035;-78
2023/05/28 13:20:07;;;;;;;6.18;5.50;;;;;;;;;;5138650;27;20039;-79
2023/05/28 13:22:52;;;;;;;7.07;6.07;;;;;;;;;;5138416;27;20476;-78
2023/05/28 13:25:37;;;;;;;6.55;5.57;;;;;;;;;;5138169;27;20040;-79
2023/05/28 13:28:24;;;;;;;6.53;5.80;;;;;;;;;;5138179;27;20043;-79
2023/05/28 13:31:08;;;;;;;7.80;7.00;;;;;;;;;;5138311;27;20035;-79
2023/05/28 13:33:53;;;;;;;10.02;6.32;;;;;;;;;;5137600;27;20047;-79
2023/05/28 13:36:39;;;;;;;7.22;5.90;;;;;;;;;;5138033;27;20043;-82
2023/05/28 13:39:24;;;;;;;8.90;6.32;;;;;;;;;;5138074;27;20468;-79
2023/05/28 13:42:10;;;;;;;8.13;6.55;;;;;;;;;;5137956;27;20035;-78
2023/05/28 13:44:55;;;;;;;8.20;7.40;;;;;;;;;;5137897;27;20035;-79
2023/05/28 13:47:41;;;;;;;6.65;6.05;;;;;;;;;;5137558;27;20500;-79
2023/05/28 13:50:26;;;;;;;8.05;6.63;;;;;;;;;;5137753;27;20046;-78
2023/05/28 13:53:12;;;;;;;6.85;6.05;;;;;;;;;;5136706;27;20047;-79
2023/05/28 13:55:58;;;;;;;13.80;6.30;;;;;;;;;;5137869;27;20043;-79
2023/05/28 13:58:43;;;;;;;7.57;6.28;;;;;;;;;;5137885;27;20047;-79
2023/05/28 14:01:29;;;;;;;6.45;5.55;;;;;;;;;;5137670;27;20039;-79
2023/05/28 14:04:15;;;;;;;7.28;6.47;;;;;;;;;;5137456;27;20388;-80
2023/05/28 14:07:00;;;;;;;7.47;6.38;;;;;;;;;;5137587;27;20392;-79
2023/05/28 14:09:46;;;;;;;6.65;5.60;;;;;;;;;;5137568;27;20036;-80
2023/05/28 14:12:31;;;;;;;7.68;6.75;;;;;;;;;;5137614;27;20047;-80
2023/05/28 14:15:17;;;;;;;7.30;6.50;;;;;;;;;;5137634;27;20047;-79
2023/05/28 14:18:04;;;;;;;7.00;6.28;;;;;;;;;;5143176;27;20047;-77
2023/05/28 14:20:49;;;;;;;7.63;6.40;;;;;;;;;;5136568;27;20043;-78
2023/05/28 14:23:35;;;;;;;8.75;6.32;;;;;;;;;;5136842;27;20039;-79
2023/05/28 14:26:20;;;;;;;8.02;6.05;;;;;;;;;;5137375;27;20039;-79
2023/05/28 14:29:06;;;;;;;9.18;7.03;;;;;;;;;;5137629;27;20039;-79
2023/05/28 14:31:52;;;;;;;7.90;6.60;;;;;;;;;;5143000;27;20039;-79
2023/05/28 14:34:39;;;;;;;7.93;6.03;;;;;;;;;;5143120;27;20047;-81
2023/05/28 14:37:24;;;;;;;10.27;6.28;;;;;;;;;;5136918;27;20035;-80
2023/05/28 14:40:10;;;;;;;9.85;7.30;;;;;;;;;;5135319;27;20590;-81
2023/05/28 14:42:56;;;;;;;8.13;6.45;;;;;;;;;;5136577;27;20043;-79
2023/05/28 14:45:41;;;;;;;8.20;6.15;;;;;;;;;;5136852;27;20051;-81
2023/05/28 14:48:27;;;;;;;7.15;5.75;;;;;;;;;;5136234;27;20504;-82
2023/05/28 14:51:13;;;;;;;6.35;5.35;;;;;;;;;;5137033;27;20051;-77
2023/05/28 14:53:58;;;;;;;6.55;3.95;;;;;;;;;;5136350;27;20472;-77
2023/05/28 14:56:43;;;;;;;7.90;5.22;;;;;;;;;;5136694;27;20043;-80
2023/05/28 14:59:28;;;;;;;7.85;4.75;;;;;;;;;;5136462;27;20039;-80
2023/05/28 15:02:13;;;;;;;10.23;5.05;;;;;;;;;;5135464;27;20035;-81
2023/05/28 15:04:58;;;;;;;6.53;4.47;;;;;;;;;;5136351;27;20043;-78
2023/05/28 15:07:44;;;;;;;6.28;4.70;;;;;;;;;;5136779;27;20047;-82
2023/05/28 15:10:30;;;;;;;6.30;4.47;;;;;;;;;;5136918;27;20039;-79
2023/05/28 15:13:15;;;;;;;8.02;4.57;;;;;;;;;;5136045;27;20043;-79
2023/05/28 15:16:01;;;;;;;4.28;3.35;;;;;;;;;;5136569;27;20380;-79
2023/05/28 15:18:46;;;;;;;7.68;5.05;;;;;;;;;;5136318;27;20035;-77
2023/05/28 15:21:31;;;;;;;9.63;5.95;;;;;;;;;;5135885;27;20035;-77
2023/05/28 15:24:17;;;;;;;8.38;5.00;;;;;;;;;;5136406;27;20393;-82
2023/05/28 15:27:03;;;;;;;11.70;6.18;;;;;;;;;;5136580;27;20597;-79
2023/05/28 15:29:51;;;;;;;15.23;8.55;;;;;;;;;;5136686;27;20038;-81
2023/05/28 15:32:38;;;;;;;19.35;8.60;;;;;;;;;;5135935;27;20082;-78
2023/05/28 15:35:27;;;;;;;11.90;6.85;;;;;;;;;;5136039;27;20051;-81
2023/05/28 15:38:12;;;;;;;10.63;6.57;;;;;;;;;;5136202;27;20047;-82
2023/05/28 15:40:58;;;;;;;17.45;8.77;;;;;;;;;;5135995;27;20042;-83
2023/05/28 15:43:44;;;;;;;11.48;7.20;;;;;;;;;;5136084;27;20035;-81
2023/05/28 15:46:33;;;;;;;10.90;6.35;;;;;;;;;;5124649;27;20047;-80
2023/05/28 15:49:19;;;;;;;10.02;6.30;;;;;;;;;;5134682;27;20042;-81
2023/05/28 15:52:05;;;;;;;10.23;6.78;;;;;;;;;;5135705;27;20039;-81
2023/05/28 15:54:51;;;;;;;8.52;6.28;;;;;;;;;;5134306;27;20476;-81
2023/05/28 15:57:36;;;;;;;13.18;7.13;;;;;;;;;;5133544;27;20106;-81
2023/05/28 16:00:22;;;;;;;8.75;6.68;;;;;;;;;;5134438;27;20043;-78
2023/05/28 16:03:13;;;;;;;9.30;6.75;;;;;;;;;;5134947;27;20472;-77
2023/05/28 16:05:59;;;;;;;9.73;7.28;;;;;;;;;;5135121;27;20388;-77
2023/05/28 16:08:44;;;;;;;11.93;7.35;;;;;;;;;;5135449;27;20047;-77
2023/05/28 16:11:30;;;;;;;14.48;9.45;;;;;;;;;;5134005;27;20388;-77
2023/05/28 16:14:17;;;;;;;10.07;7.15;;;;;;;;;;5134595;27;20043;-78
2023/05/28 16:17:04;;;;;;;13.07;9.25;;;;;;;;;;5134845;27;20035;-79
2023/05/28 16:19:51;;;;;;;14.65;7.55;;;;;;;;;;5134955;27;20396;-79
2023/05/28 16:22:37;;;;;;;13.50;7.35;;;;;;;;;;5135080;27;20055;-79
2023/05/28 16:25:23;;;;;;;16.35;7.97;;;;;;;;;;5134953;27;20047;-78
2023/05/28 16:28:08;;;;;;;17.17;11.20;;;;;;;;;;5134940;27;20047;-80